createdAt,value
2022-10-31T00:03:29.270Z,92.17
2022-10-31T00:07:33.683Z,92.23
2022-10-31T00:11:36.749Z,92.31
2022-10-31T00:15:41.647Z,92.41
2022-10-31T00:19:44.658Z,92.00
2022-10-31T00:23:49.143Z,92.21
2022-10-31T00:27:52.209Z,91.82
2022-10-31T00:31:55.304Z,91.90
2022-10-31T00:35:58.808Z,91.44
2022-10-31T00:40:04.982Z,91.68
2022-10-31T00:44:08.612Z,91.77
2022-10-31T00:48:11.965Z,91.97
2022-10-31T00:52:15.167Z,91.89
2022-10-31T00:56:20.480Z,92.33
2022-10-31T01:00:24.569Z,92.26
2022-10-31T01:04:27.918Z,92.00
2022-10-31T01:08:31.992Z,91.79
2022-10-31T01:12:39.797Z,91.50
2022-10-31T01:16:43.070Z,91.42
2022-10-31T01:20:46.073Z,91.55
2022-10-31T01:24:49.058Z,91.72
2022-10-31T01:28:55.162Z,92.09
2022-10-31T01:32:59.623Z,92.20
2022-10-31T01:37:02.915Z,91.93
2022-10-31T01:41:06.824Z,92.22
2022-10-31T01:45:13.403Z,91.99
2022-10-31T01:49:19.864Z,92.13
2022-10-31T01:53:26.868Z,91.70
2022-10-31T01:57:31.442Z,91.49
2022-10-31T02:01:36.216Z,91.72
2022-10-31T02:05:40.453Z,91.80
2022-10-31T02:09:45.386Z,91.72
2022-10-31T02:13:49.342Z,91.85
2022-10-31T02:17:53.982Z,91.98
2022-10-31T02:22:04.929Z,91.62
2022-10-31T02:26:29.889Z,91.96
2022-10-31T02:30:43.180Z,91.30
2022-10-31T02:34:58.166Z,91.39
2022-10-31T02:39:12.654Z,91.39
2022-10-31T02:43:26.850Z,91.24
2022-10-31T02:47:34.308Z,91.17
2022-10-31T02:51:40.757Z,91.44
2022-10-31T02:56:03.558Z,91.29
2022-10-31T03:00:09.201Z,91.08
2022-10-31T03:04:33.143Z,91.29
2022-10-31T03:08:48.527Z,91.13
2022-10-31T03:13:00.925Z,91.38
2022-10-31T03:17:10.251Z,91.60
2022-10-31T03:21:16.916Z,91.98
2022-10-31T03:25:21.543Z,92.05
2022-10-31T03:29:30.119Z,91.98
2022-10-31T03:33:36.830Z,91.86
2022-10-31T03:37:42.565Z,91.83
2022-10-31T03:41:58.356Z,91.66
2022-10-31T03:46:02.478Z,91.57
2022-10-31T03:50:06.952Z,91.38
2022-10-31T03:54:15.947Z,91.41
2022-10-31T03:58:26.275Z,91.53
2022-10-31T04:02:34.411Z,91.67
2022-10-31T04:06:41.115Z,91.65
2022-10-31T04:10:49.370Z,91.58
2022-10-31T04:14:55.465Z,91.33
2022-10-31T04:18:59.910Z,91.38
2022-10-31T04:23:03.813Z,90.97
2022-10-31T04:27:08.687Z,91.15
2022-10-31T04:31:14.235Z,91.53
2022-10-31T04:35:18.998Z,91.51
2022-10-31T04:39:25.826Z,91.66
2022-10-31T04:44:01.665Z,91.50
2022-10-31T04:48:06.560Z,91.08
2022-10-31T04:52:11.843Z,91.43
2022-10-31T04:56:15.239Z,91.17
2022-10-31T05:00:23.367Z,91.01
2022-10-31T05:04:28.739Z,91.53
2022-10-31T05:08:32.149Z,91.54
2022-10-31T05:12:36.071Z,91.76
2022-10-31T05:16:39.050Z,91.84
2022-10-31T05:21:06.875Z,91.79
2022-10-31T05:25:19.023Z,91.49
2022-10-31T05:29:22.101Z,91.34
2022-10-31T05:33:25.346Z,91.46
2022-10-31T05:38:05.222Z,91.57
2022-10-31T05:42:08.521Z,91.24
2022-10-31T05:46:11.771Z,91.30
2022-10-31T05:50:34.217Z,90.98
2022-10-31T05:54:47.094Z,91.08
2022-10-31T05:58:50.266Z,91.12
2022-10-31T06:03:00.029Z,90.99
2022-10-31T06:07:18.113Z,91.09
2022-10-31T06:11:22.648Z,91.06
2022-10-31T06:15:40.986Z,90.98
2022-10-31T06:19:44.847Z,91.41
2022-10-31T06:23:53.096Z,91.22
2022-10-31T06:28:35.695Z,90.94
2022-10-31T06:32:53.787Z,91.26
2022-10-31T06:36:58.220Z,90.54
2022-10-31T06:41:05.176Z,91.09
2022-10-31T06:45:25.908Z,91.05
2022-10-31T06:49:57.931Z,90.82
2022-10-31T06:54:02.449Z,90.95
2022-10-31T06:58:05.928Z,91.06
2022-10-31T07:02:12.939Z,91.33
2022-10-31T07:06:18.867Z,91.27
2022-10-31T07:10:23.022Z,91.42
2022-10-31T07:14:31.888Z,90.99
2022-10-31T07:18:37.384Z,90.85
2022-10-31T07:22:40.409Z,91.19
2022-10-31T07:26:47.000Z,90.89
2022-10-31T07:30:52.276Z,91.60
2022-10-31T07:34:58.346Z,91.34
2022-10-31T07:39:09.913Z,91.35
2022-10-31T07:43:14.598Z,91.55
2022-10-31T07:47:41.238Z,91.48
2022-10-31T07:52:04.273Z,91.34
2022-10-31T07:56:25.668Z,91.30
2022-10-31T08:00:30.633Z,91.24
2022-10-31T08:04:34.356Z,90.90
2022-10-31T08:08:57.928Z,91.51
2022-10-31T08:13:02.528Z,91.50
2022-10-31T08:17:06.786Z,91.38
2022-10-31T08:21:24.526Z,90.91
2022-10-31T08:25:37.151Z,91.28
2022-10-31T08:29:42.461Z,90.89
2022-10-31T08:33:45.918Z,91.32
2022-10-31T08:37:56.391Z,91.02
2022-10-31T08:42:03.800Z,90.94
2022-10-31T08:46:09.354Z,91.03
2022-10-31T08:50:14.816Z,91.42
2022-10-31T08:54:23.049Z,91.50
2022-10-31T08:58:27.740Z,91.12
2022-10-31T09:02:35.871Z,90.92
2022-10-31T09:06:46.408Z,91.21
2022-10-31T09:10:59.963Z,91.03
2022-10-31T09:15:45.614Z,90.62
2022-10-31T09:19:58.115Z,90.71
2022-10-31T09:24:07.982Z,91.29
2022-10-31T09:28:13.994Z,91.19
2022-10-31T09:32:18.575Z,91.28
2022-10-31T09:36:22.857Z,91.24
2022-10-31T09:40:32.182Z,91.20
2022-10-31T09:44:48.928Z,91.17
2022-10-31T09:49:26.759Z,91.30
2022-10-31T09:53:36.315Z,91.13
2022-10-31T09:57:41.137Z,90.92
2022-10-31T10:01:49.800Z,90.52
2022-10-31T10:06:04.007Z,90.79
2022-10-31T10:10:33.627Z,90.81
2022-10-31T10:15:15.741Z,90.63
2022-10-31T10:19:32.228Z,90.94
2022-10-31T10:23:47.308Z,90.54
2022-10-31T10:28:03.462Z,90.43
2022-10-31T10:32:13.344Z,90.83
2022-10-31T10:36:20.350Z,90.91
2022-10-31T10:40:27.144Z,90.67
2022-10-31T10:44:47.462Z,90.89
2022-10-31T10:48:57.831Z,91.25
2022-10-31T10:53:10.015Z,91.34
2022-10-31T10:57:33.182Z,90.88
2022-10-31T11:01:36.320Z,90.72
2022-10-31T11:05:43.641Z,90.79
2022-10-31T11:09:47.515Z,90.80
2022-10-31T11:13:57.461Z,90.81
2022-10-31T11:18:00.682Z,90.62
2022-10-31T11:22:09.744Z,90.76
2022-10-31T11:26:21.929Z,90.56
2022-10-31T11:30:26.356Z,90.68
2022-10-31T11:34:34.247Z,90.33
2022-10-31T11:38:42.879Z,90.00
2022-10-31T11:42:47.175Z,90.22
2022-10-31T11:46:54.493Z,90.12
2022-10-31T11:50:59.685Z,90.52
2022-10-31T11:55:15.658Z,90.11
2022-10-31T11:59:24.402Z,90.38
2022-10-31T12:03:51.057Z,90.38
2022-10-31T12:07:54.374Z,89.89
2022-10-31T12:12:45.581Z,89.64
2022-10-31T12:16:55.701Z,89.85
2022-10-31T12:21:11.726Z,90.08
2022-10-31T12:25:30.412Z,90.05
2022-10-31T12:29:49.726Z,90.03
2022-10-31T12:34:02.590Z,89.59
2022-10-31T12:38:23.956Z,89.67
2022-10-31T12:42:41.636Z,89.59
2022-10-31T12:47:01.576Z,89.34
2022-10-31T12:51:13.621Z,89.69
2022-10-31T12:55:32.512Z,89.79
2022-10-31T12:59:39.012Z,89.80
2022-10-31T13:03:49.231Z,90.06
2022-10-31T13:07:56.537Z,90.25
2022-10-31T13:12:06.682Z,90.20
2022-10-31T13:16:16.153Z,89.98
2022-10-31T13:20:25.580Z,89.91
2022-10-31T13:24:35.659Z,90.11
2022-10-31T13:28:45.676Z,90.11
2022-10-31T13:32:52.882Z,90.30
2022-10-31T13:37:06.468Z,89.82
2022-10-31T13:41:23.614Z,89.69
2022-10-31T13:45:29.372Z,90.03
2022-10-31T13:49:40.884Z,89.64
2022-10-31T13:53:47.105Z,89.38
2022-10-31T13:57:50.593Z,89.43
2022-10-31T14:02:01.220Z,89.33
2022-10-31T14:06:05.783Z,89.35
2022-10-31T14:10:23.599Z,89.43
2022-10-31T14:14:34.797Z,89.87
2022-10-31T14:18:41.564Z,89.96
2022-10-31T14:22:44.796Z,90.12
2022-10-31T14:26:55.215Z,90.38
2022-10-31T14:31:00.542Z,90.20
2022-10-31T14:35:05.869Z,90.63
2022-10-31T14:39:17.071Z,91.02
2022-10-31T14:43:50.116Z,91.06
2022-10-31T14:48:08.128Z,90.43
2022-10-31T14:52:15.536Z,90.23
2022-10-31T14:56:24.125Z,90.12
2022-10-31T15:00:27.249Z,90.21
2022-10-31T15:04:33.545Z,90.04
2022-10-31T15:08:42.587Z,90.01
2022-10-31T15:12:46.067Z,90.13
2022-10-31T15:16:49.171Z,89.50
2022-10-31T15:20:53.495Z,89.49
2022-10-31T15:24:58.250Z,89.62
2022-10-31T15:29:03.319Z,90.02
2022-10-31T15:33:21.850Z,90.02
2022-10-31T15:37:27.181Z,89.82
2022-10-31T15:41:35.301Z,90.00
2022-10-31T15:45:38.347Z,90.14
2022-10-31T15:49:44.242Z,90.09
2022-10-31T15:53:50.793Z,89.98
2022-10-31T15:57:58.941Z,90.17
2022-10-31T16:02:04.183Z,90.01
2022-10-31T16:06:07.649Z,90.17
2022-10-31T16:10:26.217Z,90.19
2022-10-31T16:14:37.855Z,90.87
2022-10-31T16:18:43.256Z,90.64
2022-10-31T16:22:51.785Z,90.66
2022-10-31T16:27:00.358Z,91.20
2022-10-31T16:31:15.707Z,90.79
2022-10-31T16:35:25.851Z,91.00
2022-10-31T16:39:29.076Z,90.95
2022-10-31T16:43:32.131Z,91.34
2022-10-31T16:47:36.697Z,91.19
2022-10-31T16:51:39.864Z,90.72
2022-10-31T16:55:47.283Z,90.71
2022-10-31T16:59:54.903Z,90.97
2022-10-31T17:03:59.360Z,90.98
2022-10-31T17:08:02.726Z,91.44
2022-10-31T17:12:21.368Z,91.52
2022-10-31T17:16:41.938Z,91.32
2022-10-31T17:21:23.083Z,91.12
2022-10-31T17:25:45.125Z,90.96
2022-10-31T17:29:57.438Z,90.82
2022-10-31T17:34:15.178Z,90.71
2022-10-31T17:38:36.666Z,90.57
2022-10-31T17:42:52.094Z,90.98
2022-10-31T17:46:55.122Z,90.88
2022-10-31T17:51:01.514Z,90.78
2022-10-31T17:55:06.762Z,90.79
2022-10-31T17:59:10.120Z,91.52
2022-10-31T18:03:13.158Z,91.27
2022-10-31T18:07:19.305Z,91.60
2022-10-31T18:11:23.720Z,91.29
2022-10-31T18:15:26.876Z,91.33
2022-10-31T18:19:29.906Z,91.13
2022-10-31T18:23:32.985Z,91.21
2022-10-31T18:27:37.551Z,91.34
2022-10-31T18:31:40.560Z,91.26
2022-10-31T18:35:43.663Z,91.21
2022-10-31T18:39:46.757Z,91.54
2022-10-31T18:43:52.136Z,91.24
2022-10-31T18:47:55.387Z,91.12
2022-10-31T18:51:58.420Z,91.05
2022-10-31T18:56:02.387Z,91.42
2022-10-31T19:00:08.518Z,91.64
2022-10-31T19:04:12.067Z,91.83
2022-10-31T19:08:15.541Z,91.94
2022-10-31T19:12:18.657Z,91.54
2022-10-31T19:16:23.471Z,91.27
2022-10-31T19:20:26.737Z,91.40
2022-10-31T19:24:30.830Z,91.33
2022-10-31T19:28:35.581Z,91.55
2022-10-31T19:32:40.036Z,91.45
2022-10-31T19:36:43.458Z,91.42
2022-10-31T19:40:46.549Z,91.53
2022-10-31T19:44:49.583Z,91.23
2022-10-31T19:48:54.233Z,91.36
2022-10-31T19:52:57.296Z,91.55
2022-10-31T19:57:00.378Z,91.58
2022-10-31T20:01:08.481Z,91.45
2022-10-31T20:05:13.190Z,91.41
2022-10-31T20:09:16.500Z,91.08
2022-10-31T20:13:19.502Z,91.30
2022-10-31T20:17:22.588Z,91.28
2022-10-31T20:21:29.189Z,91.46
2022-10-31T20:25:33.335Z,91.74
2022-10-31T20:29:36.520Z,91.29
2022-10-31T20:33:40.061Z,91.16
2022-10-31T20:37:44.820Z,90.95
2022-10-31T20:41:48.676Z,91.40
2022-10-31T20:45:52.044Z,91.41
2022-10-31T20:49:55.168Z,91.57
2022-10-31T20:54:00.760Z,91.60
2022-10-31T20:58:03.815Z,91.36
2022-10-31T21:02:07.184Z,91.25
2022-10-31T21:06:11.496Z,91.13
2022-10-31T21:10:16.116Z,90.91
2022-10-31T21:14:19.271Z,90.73
2022-10-31T21:18:22.968Z,90.92
2022-10-31T21:22:26.157Z,90.84
2022-10-31T21:26:34.493Z,90.68
2022-10-31T21:30:41.411Z,91.28
2022-10-31T21:34:44.519Z,91.18
2022-10-31T21:38:51.748Z,91.24
2022-10-31T21:42:56.734Z,91.26
2022-10-31T21:46:59.753Z,91.20
2022-10-31T21:51:06.494Z,90.81
2022-10-31T21:55:11.254Z,91.32
2022-10-31T21:59:15.663Z,91.24
2022-10-31T22:03:18.746Z,91.34
2022-10-31T22:07:21.766Z,91.57
2022-10-31T22:11:25.016Z,91.83
2022-10-31T22:15:29.445Z,91.73
2022-10-31T22:19:32.564Z,91.73
2022-10-31T22:23:36.455Z,91.78
2022-10-31T22:27:39.410Z,91.73
2022-10-31T22:31:45.842Z,92.18
2022-10-31T22:35:48.984Z,92.28
2022-10-31T22:39:52.174Z,92.32
2022-10-31T22:43:56.097Z,92.20
2022-10-31T22:48:00.579Z,92.35
2022-10-31T22:52:05.535Z,92.51
2022-10-31T22:56:10.733Z,92.47
2022-10-31T23:00:15.604Z,92.60
2022-10-31T23:04:20.611Z,92.54
2022-10-31T23:08:24.133Z,92.76
2022-10-31T23:12:44.721Z,92.61
2022-10-31T23:16:49.555Z,93.03
2022-10-31T23:20:55.405Z,92.79
2022-10-31T23:24:58.538Z,92.62
2022-10-31T23:29:00.586Z,92.84
2022-10-31T23:33:04.494Z,92.89
2022-10-31T23:37:09.984Z,93.29
2022-10-31T23:41:13.172Z,93.25
2022-10-31T23:45:16.740Z,93.03
2022-10-31T23:49:19.849Z,93.51
2022-10-31T23:53:24.540Z,93.38
2022-10-31T23:57:27.624Z,93.58
